createdAt,value
2023-02-11T00:04:25.002Z,0
2023-02-11T00:09:43.973Z,0
2023-02-11T00:15:03.220Z,0
2023-02-11T00:20:22.837Z,0
2023-02-11T00:25:41.193Z,0
2023-02-11T00:31:00.576Z,0
2023-02-11T00:41:39.121Z,0
2023-02-11T00:46:58.151Z,0
2023-02-11T00:52:17.803Z,0
2023-02-11T00:57:37.105Z,0
2023-02-11T01:02:56.485Z,0
2023-02-11T01:08:16.184Z,0
2023-02-11T01:13:34.987Z,0
2023-02-11T01:24:13.558Z,0
2023-02-11T01:29:33.037Z,0
2023-02-11T01:34:52.326Z,0
2023-02-11T01:40:11.587Z,0
2023-02-11T01:45:31.360Z,0
2023-02-11T01:50:50.651Z,0
2023-02-11T01:56:10.093Z,0
2023-02-11T02:01:29.502Z,0
2023-02-11T02:06:49.016Z,0
2023-02-11T02:12:08.376Z,0
2023-02-11T02:18:42.601Z,0
2023-02-11T02:22:47.305Z,0
2023-02-11T02:28:06.977Z,0
2023-02-11T02:33:26.885Z,0
2023-02-11T02:38:46.305Z,0
2023-02-11T02:47:19.340Z,0
2023-02-11T02:49:25.330Z,0
2023-02-11T03:05:23.055Z,0
2023-02-11T03:10:42.779Z,0
2023-02-11T03:16:01.642Z,0
2023-02-11T03:21:20.985Z,0
2023-02-11T03:26:40.525Z,0
2023-02-11T03:32:00.243Z,0
2023-02-11T03:37:19.843Z,0
2023-02-11T03:47:58.137Z,0
2023-02-11T03:53:17.811Z,0
2023-02-11T04:03:56.745Z,0
2023-02-11T04:09:16.331Z,0
2023-02-11T04:14:36.044Z,0
2023-02-11T04:19:54.686Z,0
2023-02-11T04:30:33.286Z,0
2023-02-11T04:35:52.695Z,0
2023-02-11T04:41:11.300Z,0
2023-02-11T04:46:31.043Z,0
2023-02-11T04:51:49.850Z,0
2023-02-11T04:57:09.325Z,0
2023-02-11T05:02:29.066Z,0
2023-02-11T05:07:48.613Z,0
2023-02-11T05:13:08.401Z,0
2023-02-11T05:18:27.812Z,0
2023-02-11T05:29:07.090Z,0
2023-02-11T05:34:26.077Z,0
2023-02-11T05:39:45.032Z,0
2023-02-11T05:45:04.643Z,0
2023-02-11T05:50:23.550Z,0
2023-02-11T05:55:42.830Z,0
2023-02-11T06:01:01.676Z,0
2023-02-11T06:11:40.586Z,0
2023-02-11T06:16:59.963Z,0
2023-02-11T06:22:19.518Z,0
2023-02-11T06:30:52.711Z,0.0018
2023-02-11T06:32:56.678Z,0.0042
2023-02-11T06:38:16.148Z,0.0143
2023-02-11T06:48:54.575Z,0.0304
2023-02-11T06:54:13.632Z,0.0331
2023-02-11T06:59:32.649Z,0.0352
2023-02-11T07:04:52.175Z,0.0447
2023-02-11T07:10:11.716Z,0.0479
2023-02-11T07:15:31.121Z,0.0563
2023-02-11T07:20:50.722Z,0.0633
2023-02-11T07:31:30.099Z,0.0793
2023-02-11T07:38:04.078Z,0.0907
2023-02-11T07:42:20.589Z,0.08
2023-02-11T07:47:29.141Z,0.0853
2023-02-11T07:52:48.041Z,0.0893
2023-02-11T07:58:07.521Z,0.087
2023-02-11T08:03:27.298Z,0.0888
2023-02-11T08:14:04.399Z,0.1075
2023-02-11T08:19:24.147Z,0.1138
2023-02-11T08:24:43.720Z,0.1242
2023-02-11T08:30:02.880Z,0.1458
2023-02-11T08:35:22.247Z,0.1432
2023-02-11T08:40:41.583Z,0.1264
2023-02-11T08:46:02.090Z,0.1129
2023-02-11T08:56:39.576Z,0.2212
2023-02-11T09:01:58.426Z,0.265
2023-02-11T09:07:17.233Z,0.204
2023-02-11T09:12:36.651Z,0.1965
2023-02-11T09:17:56.254Z,0.3454
2023-02-11T09:23:17.608Z,0.4338
2023-02-11T09:28:34.497Z,0.3902
2023-02-11T09:39:12.716Z,0.3921
2023-02-11T09:44:31.015Z,0.4987
2023-02-11T09:49:50.356Z,0.6376
2023-02-11T09:55:09.751Z,0.6546
2023-02-11T10:00:29.291Z,0.6962
2023-02-11T10:05:48.490Z,0.7818
2023-02-11T10:11:08.026Z,0.4854
2023-02-11T10:21:46.553Z,0.7417
2023-02-11T10:27:06.116Z,0.8282
2023-02-11T10:32:27.737Z,0.9286
2023-02-11T10:37:44.672Z,0.925
2023-02-11T10:43:03.766Z,0.6909
2023-02-11T10:48:23.639Z,1.1637
2023-02-11T10:53:42.530Z,0.4585
2023-02-11T10:59:01.918Z,0.4153
2023-02-11T11:04:21.488Z,0.4166
2023-02-11T11:09:40.539Z,0.2925
2023-02-11T11:20:19.214Z,0.2765
2023-02-11T11:25:38.526Z,0.2813
2023-02-11T11:30:58.275Z,0.274
2023-02-11T11:36:16.707Z,0.2868
2023-02-11T11:41:35.887Z,0.2374
2023-02-11T11:46:55.520Z,0.2457
2023-02-11T11:52:14.613Z,0.2772
2023-02-11T12:02:52.828Z,0.2482
2023-02-11T12:08:12.500Z,0.2299
2023-02-11T12:20:06.129Z,0.2586
2023-02-11T12:24:11.302Z,0.2656
2023-02-11T12:29:30.521Z,0.2917
2023-02-11T12:34:49.753Z,0.3302
2023-02-11T12:45:27.999Z,0.2841
2023-02-11T12:50:47.394Z,0.1978
2023-02-11T12:56:06.904Z,0.1479
2023-02-11T13:01:26.032Z,0.1556
2023-02-11T13:06:43.609Z,0.1676
2023-02-11T13:12:03.140Z,0.1845
2023-02-11T13:17:22.667Z,0.1485
2023-02-11T13:22:41.610Z,0.1257
2023-02-11T13:28:00.471Z,0.1178
2023-02-11T13:38:38.402Z,0.1844
2023-02-11T13:43:57.781Z,0.202
2023-02-11T13:49:17.196Z,0.1493
2023-02-11T13:54:36.914Z,0.1259
2023-02-11T13:59:56.357Z,0.1327
2023-02-11T14:05:15.782Z,0.1353
2023-02-11T14:10:35.303Z,0.1662
2023-02-11T14:21:13.376Z,0.1151
2023-02-11T14:26:33.051Z,0.1198
2023-02-11T14:37:12.248Z,0.0838
2023-02-11T14:42:31.734Z,0.0756
2023-02-11T14:47:51.459Z,0.0688
2023-02-11T14:53:10.432Z,0.065
2023-02-11T15:03:49.153Z,0.0579
2023-02-11T15:09:08.464Z,0.0495
2023-02-11T15:19:46.843Z,0.0497
2023-02-11T15:25:05.984Z,0.04
2023-02-11T15:30:25.011Z,0.0378
2023-02-11T15:35:44.678Z,0.0367
2023-02-11T15:41:03.523Z,0.0351
2023-02-11T15:46:22.649Z,0.0399
2023-02-11T15:51:42.206Z,0.0361
2023-02-11T16:02:21.139Z,0.0392
2023-02-11T16:07:40.246Z,0.0345
2023-02-11T16:12:59.347Z,0.0359
2023-02-11T16:18:18.830Z,0.0296
2023-02-11T16:23:38.349Z,0.0247
2023-02-11T16:28:57.799Z,0.0258
2023-02-11T16:34:16.528Z,0.0173
2023-02-11T16:44:54.722Z,0.0018
2023-02-11T16:50:15.586Z,0
2023-02-11T17:00:54.019Z,0
2023-02-11T17:06:13.367Z,0
2023-02-11T17:11:32.165Z,0
2023-02-11T17:16:51.850Z,0
2023-02-11T17:22:37.024Z,0
2023-02-11T17:27:55.932Z,0
2023-02-11T17:33:15.456Z,0
2023-02-11T17:38:35.136Z,0
2023-02-11T17:43:53.945Z,0
2023-02-11T17:49:13.601Z,0
2023-02-11T17:54:33.095Z,0
2023-02-11T17:59:52.527Z,0
2023-02-11T18:05:11.950Z,0
2023-02-11T18:15:51.111Z,0
2023-02-11T18:21:10.695Z,0
2023-02-11T18:26:29.656Z,0
2023-02-11T18:31:48.755Z,0
2023-02-11T18:37:07.899Z,0
2023-02-11T18:42:27.638Z,0
2023-02-11T18:47:47.210Z,0
2023-02-11T18:58:25.683Z,0
2023-02-11T19:03:44.993Z,0
2023-02-11T19:09:03.587Z,0
2023-02-11T19:14:23.030Z,0
2023-02-11T19:19:41.962Z,0
2023-02-11T19:25:01.603Z,0
2023-02-11T19:30:20.606Z,0
2023-02-11T19:40:58.632Z,0
2023-02-11T19:46:17.526Z,0
2023-02-11T19:51:38.005Z,0
2023-02-11T19:56:57.498Z,0
2023-02-11T20:03:31.648Z,0
2023-02-11T20:07:36.266Z,0
2023-02-11T20:18:14.513Z,0
2023-02-11T20:23:33.669Z,0
2023-02-11T20:34:12.929Z,0
2023-02-11T20:39:31.841Z,0
2023-02-11T20:44:50.765Z,0
2023-02-11T20:50:10.071Z,0
2023-02-11T20:55:29.840Z,0
2023-02-11T21:00:49.111Z,0
2023-02-11T21:06:08.880Z,0
2023-02-11T21:16:47.737Z,0
2023-02-11T21:22:06.727Z,0
2023-02-11T21:27:26.390Z,0
2023-02-11T21:32:45.953Z,0
2023-02-11T21:38:04.871Z,0
2023-02-11T21:43:23.982Z,0
2023-02-11T21:48:43.399Z,0
2023-02-11T21:55:17.584Z,0
2023-02-11T21:59:23.757Z,0
2023-02-11T22:04:43.473Z,0
2023-02-11T22:10:02.811Z,0
2023-02-11T22:15:21.316Z,0
2023-02-11T22:20:40.802Z,0
2023-02-11T22:26:00.111Z,0
2023-02-11T22:31:19.284Z,0
2023-02-11T22:41:57.219Z,0
2023-02-11T22:47:16.495Z,0
2023-02-11T22:57:54.440Z,0
2023-02-11T23:03:13.502Z,0
2023-02-11T23:08:32.993Z,0
2023-02-11T23:13:52.250Z,0
2023-02-11T23:24:31.321Z,0
2023-02-11T23:29:50.653Z,0
2023-02-11T23:40:28.969Z,0
2023-02-11T23:45:47.925Z,0
2023-02-11T23:51:06.020Z,0
2023-02-11T23:56:25.336Z,0
